WZZ4D1 BKPR-LYPG
Flight info
| Callsign | WZZ4D1 |
|---|---|
| Flight time | N/A |
| Altitude | 14000 |
| Route | KUKAD DCT RETRA |
| Aircraft | A20N/M-V/N |
Departure
| Time | 2026-04-30 15:00 |
|---|---|
| Airport | Priština Adem Jashari International Airport (BKPR) |
Arrival
| Time | N/A |
|---|---|
| Airport | Podgorica Airport / Podgorica Golubovci Airbase (LYPG) |
| Time | Latitude | Longitude | Altitude | Speed | Heading |
|---|---|---|---|---|---|
| 2026-04-30 14:48 | 42.57546 | 21.03124 | 1786 ft | 0 kts | 267° |
| 2026-04-30 14:52 | 42.57547 | 21.03149 | 1786 ft | 2 kts | 266° |
| 2026-04-30 14:52 | 42.57548 | 21.03169 | 1786 ft | 2 kts | 267° |
| 2026-04-30 14:53 | 42.57549 | 21.03202 | 1786 ft | 1 kts | 248° |
| 2026-04-30 14:53 | 42.57559 | 21.03216 | 1787 ft | 2 kts | 197° |
| 2026-04-30 14:54 | 42.57573 | 21.03217 | 1787 ft | 0 kts | 175° |
| 2026-04-30 14:55 | 42.57464 | 21.03229 | 1785 ft | 19 kts | 175° |
| 2026-04-30 14:55 | 42.57343 | 21.03256 | 1784 ft | 15 kts | 137° |
| 2026-04-30 14:55 | 42.57189 | 21.03355 | 1781 ft | 14 kts | 175° |
| 2026-04-30 14:56 | 42.56956 | 21.03379 | 1782 ft | 21 kts | 176° |
| 2026-04-30 14:56 | 42.56601 | 21.03416 | 1788 ft | 25 kts | 175° |
| 2026-04-30 14:57 | 42.56434 | 21.03430 | 1791 ft | 22 kts | 173° |
| 2026-04-30 14:57 | 42.56130 | 21.03462 | 1793 ft | 20 kts | 174° |
| 2026-04-30 14:58 | 42.55862 | 21.03489 | 1798 ft | 17 kts | 173° |
| 2026-04-30 14:58 | 42.55809 | 21.03605 | 1798 ft | 16 kts | 86° |
| 2026-04-30 14:58 | 42.56002 | 21.03721 | 1795 ft | 43 kts | 356° |
| 2026-04-30 14:59 | 42.57594 | 21.03559 | 1854 ft | 166 kts | 356° |
| 2026-04-30 15:00 | 42.60959 | 21.03217 | 4182 ft | 157 kts | 357° |
| 2026-04-30 15:00 | 42.63095 | 21.02934 | 5529 ft | 157 kts | 347° |
| 2026-04-30 15:01 | 42.64663 | 21.00441 | 6415 ft | 197 kts | 309° |
| 2026-04-30 15:01 | 42.65513 | 20.98883 | 6828 ft | 217 kts | 313° |
| 2026-04-30 15:01 | 42.67498 | 20.95408 | 8027 ft | 246 kts | 311° |
| 2026-04-30 15:02 | 42.68475 | 20.93476 | 8918 ft | 252 kts | 298° |
| 2026-04-30 15:02 | 42.68811 | 20.91151 | 9769 ft | 263 kts | 269° |
| 2026-04-30 15:03 | 42.65181 | 20.85163 | 11831 ft | 306 kts | 218° |
| 2026-04-30 15:03 | 42.61718 | 20.81756 | 13476 ft | 312 kts | 220° |
| 2026-04-30 15:04 | 42.58224 | 20.78234 | 14219 ft | 315 kts | 221° |
| 2026-04-30 15:04 | 42.53014 | 20.72965 | 14228 ft | 311 kts | 221° |
| 2026-04-30 15:05 | 42.48554 | 20.66687 | 15806 ft | 312 kts | 250° |
| 2026-04-30 15:06 | 42.46966 | 20.60921 | 16223 ft | 353 kts | 254° |
| 2026-04-30 15:06 | 42.45181 | 20.54279 | 16453 ft | 394 kts | 253° |
| 2026-04-30 15:07 | 42.43276 | 20.47325 | 17787 ft | 396 kts | 253° |
| 2026-04-30 15:07 | 42.41356 | 20.40350 | 18186 ft | 396 kts | 252° |
| 2026-04-30 15:08 | 42.39424 | 20.33355 | 18186 ft | 396 kts | 252° |
| 2026-04-30 15:08 | 42.36545 | 20.22930 | 18183 ft | 396 kts | 253° |
| 2026-04-30 15:09 | 42.34954 | 20.15836 | 18177 ft | 394 kts | 259° |
| 2026-04-30 15:09 | 42.33839 | 20.08592 | 18170 ft | 395 kts | 262° |
| 2026-04-30 15:10 | 42.32801 | 20.01361 | 18153 ft | 393 kts | 262° |
| 2026-04-30 15:11 | 42.30709 | 19.86888 | 17945 ft | 394 kts | 262° |
| 2026-04-30 15:11 | 42.29656 | 19.79652 | 17359 ft | 392 kts | 262° |
| 2026-04-30 15:12 | 42.28085 | 19.68919 | 15801 ft | 386 kts | 262° |
| 2026-04-30 15:13 | 42.27051 | 19.61902 | 14580 ft | 380 kts | 262° |
| 2026-04-30 15:14 | 42.25013 | 19.48132 | 12385 ft | 368 kts | 261° |
| 2026-04-30 15:14 | 42.23517 | 19.38123 | 11513 ft | 359 kts | 262° |
| 2026-04-30 15:16 | 42.29236 | 19.25146 | 10443 ft | 339 kts | 316° |
| 2026-04-30 15:17 | 42.34340 | 19.15250 | 9185 ft | 307 kts | 305° |
| 2026-04-30 15:18 | 42.40872 | 19.07235 | 8162 ft | 246 kts | 19° |
| 2026-04-30 15:19 | 42.42952 | 19.12518 | 7402 ft | 248 kts | 109° |